Time;durP1;ratioP1;P1;durP2;ratioP2;P2;SDS_P1;SDS_P2;PMS_P1;PMS_P2;Temp;Humidity;BMP_temperature;BMP_pressure;BME280_temperature;BME280_humidity;BME280_pressure;Samples;Min_cycle;Max_cycle;Signal;HPM_P1;HPM_P2
2022/10/27 00:00:17;;;;;;;42.40;8.40;;;;;;;18.75;100.00;98733.03;5020755;28;20559;-57
2022/10/27 00:02:42;;;;;;;34.05;7.55;;;;;;;19.68;100.00;98728.81;5018317;28;20064;-57
2022/10/27 00:05:08;;;;;;;46.55;8.27;;;;;;;20.13;100.00;98734.63;5018169;28;20029;-57
2022/10/27 00:07:37;;;;;;;52.75;9.82;;;;;;;18.76;100.00;98740.03;5013582;28;20026;-57
2022/10/27 00:10:06;;;;;;;40.13;8.40;;;;;;;19.05;100.00;98736.41;5024921;28;20014;-58
2022/10/27 00:12:33;;;;;;;47.80;10.10;;;;;;;17.71;100.00;98741.03;5019644;28;20506;-59
2022/10/27 00:14:59;;;;;;;50.40;9.27;;;;;;;17.88;100.00;98730.38;5020977;28;20069;-56
2022/10/27 00:17:24;;;;;;;59.58;10.10;;;;;;;17.38;100.00;98736.75;5016441;28;20038;-57
2022/10/27 00:19:50;;;;;;;47.97;9.02;;;;;;;17.82;100.00;98735.97;5016618;28;20418;-58
2022/10/27 00:22:15;;;;;;;43.97;8.40;;;;;;;18.44;100.00;98735.81;5018862;28;20128;-57
2022/10/27 00:24:40;;;;;;;56.10;9.57;;;;;;;17.90;100.00;98735.53;5018970;28;20037;-57
2022/10/27 00:27:07;;;;;;;38.92;8.05;;;;;;;17.64;100.00;98737.88;5016112;28;20041;-59
2022/10/27 00:29:33;;;;;;;40.97;9.23;;;;;;;17.52;100.00;98731.56;5018802;28;20048;-59
2022/10/27 00:31:58;;;;;;;46.05;9.63;;;;;;;16.85;100.00;98736.19;5011987;28;20148;-57
2022/10/27 00:34:23;;;;;;;52.45;10.07;;;;;;;17.70;100.00;98739.34;5015272;28;20065;-58
2022/10/27 00:36:49;;;;;;;65.78;11.25;;;;;;;17.22;100.00;98738.56;5017601;28;20034;-58
2022/10/27 00:39:14;;;;;;;45.63;9.02;;;;;;;17.42;100.00;98745.34;5015991;28;20233;-59
2022/10/27 00:41:41;;;;;;;58.42;8.75;;;;;;;18.08;100.00;98749.44;5019733;28;20033;-57
2022/10/27 00:44:33;;;;;;;40.35;8.27;;;;;;;18.10;100.00;98753.72;5012021;28;20025;-57
2022/10/27 00:47:10;;;;;;;41.53;8.23;;;;;;;18.11;100.00;98755.38;5018628;28;20064;-57
2022/10/27 00:49:50;;;;;;;42.83;9.20;;;;;;;16.70;100.00;98760.72;5021035;28;20030;-58
2022/10/27 00:52:31;;;;;;;41.80;8.63;;;;;;;17.06;100.00;98751.78;5014024;28;20045;-59
2022/10/27 00:55:01;;;;;;;47.35;8.38;;;;;;;18.48;100.00;98757.59;5021526;28;20018;-57
2022/10/27 00:57:28;;;;;;;36.08;7.15;;;;;;;18.71;100.00;98752.66;5016109;28;20041;-58
2022/10/27 00:59:54;;;;;;;38.90;7.72;;;;;;;19.18;100.00;98752.34;5016500;28;20022;-60
2022/10/27 01:36:01;;;;;;;49.17;7.50;;;;;;;18.20;100.00;98769.84;6072426;23;20021;-56
2022/10/27 01:53:59;;;;;;;178.75;20.30;;;;;;;18.08;100.00;98763.47;5959953;23;20045;-59
2022/10/27 02:01:45;;;;;;;36.92;7.85;;;;;;;17.27;100.00;98760.25;5183787;23;20095;-58
2022/10/27 02:04:28;;;;;;;39.05;7.82;;;;;;;16.91;100.00;98764.00;5035101;28;20052;-61
2022/10/27 02:07:03;;;;;;;35.30;7.95;;;;;;;17.01;100.00;98759.94;5037025;28;20079;-59
2022/10/27 02:09:37;;;;;;;43.92;7.72;;;;;;;17.73;100.00;98776.09;5037915;28;20029;-59
2022/10/27 02:12:10;;;;;;;30.52;6.45;;;;;;;18.03;100.00;98772.63;5018223;28;20045;-59
2022/10/27 02:14:37;;;;;;;47.33;8.45;;;;;;;17.73;100.00;98770.81;5016736;28;20033;-59
2022/10/27 02:17:07;;;;;;;34.40;7.72;;;;;;;17.04;100.00;98767.66;5016026;28;20454;-60
2022/10/27 02:19:35;;;;;;;43.08;8.13;;;;;;;17.42;100.00;98771.72;5016110;28;20025;-59
2022/10/27 02:22:03;;;;;;;39.28;7.47;;;;;;;16.70;100.00;98771.25;5016589;28;20115;-57
2022/10/27 02:24:29;;;;;;;29.73;7.00;;;;;;;17.40;100.00;98773.59;5018516;28;20971;-58
2022/10/27 02:27:02;;;;;;;31.80;6.88;;;;;;;17.79;100.00;98770.47;5017666;28;20656;-58
2022/10/27 02:29:36;;;;;;;37.25;7.30;;;;;;;17.67;100.00;98777.28;5018319;28;20025;-58
2022/10/27 02:32:05;;;;;;;27.05;5.88;;;;;;;18.02;100.00;98770.94;5017833;28;20045;-57
2022/10/27 02:34:32;;;;;;;25.80;5.80;;;;;;;18.60;100.00;98777.13;5018769;28;20034;-59
2022/10/27 02:36:58;;;;;;;40.05;7.15;;;;;;;17.92;100.00;98770.63;5021355;28;20064;-58
2022/10/27 02:39:23;;;;;;;37.92;7.70;;;;;;;17.94;100.00;98775.81;5022565;28;20512;-58
2022/10/27 02:41:49;;;;;;;53.92;7.72;;;;;;;17.07;100.00;98770.13;5019935;28;20037;-57
2022/10/27 02:44:15;;;;;;;42.65;7.07;;;;;;;17.37;100.00;98774.63;5022380;28;20053;-57
2022/10/27 02:46:41;;;;;;;36.28;6.80;;;;;;;18.35;100.00;98775.97;5021435;28;20044;-57
2022/10/27 02:49:06;;;;;;;35.67;6.93;;;;;;;18.73;100.00;98783.38;5022023;28;20113;-57
2022/10/27 02:51:31;;;;;;;33.15;6.68;;;;;;;18.40;100.00;98786.28;5021172;28;20073;-59
2022/10/27 02:53:57;;;;;;;38.35;6.88;;;;;;;17.63;100.00;98790.75;5021910;28;20053;-57
2022/10/27 02:56:22;;;;;;;33.47;6.78;;;;;;;16.93;100.00;98783.22;5021657;28;20115;-57
2022/10/27 02:58:48;;;;;;;39.35;7.43;;;;;;;16.58;100.00;98780.69;5022308;28;20144;-58
2022/10/27 03:01:13;;;;;;;32.42;6.65;;;;;;;18.02;100.00;98786.78;5020395;28;20106;-60
2022/10/27 03:03:38;;;;;;;32.20;6.70;;;;;;;17.36;100.00;98786.09;5021828;28;20033;-58
2022/10/27 03:06:04;;;;;;;40.05;6.97;;;;;;;18.26;100.00;98780.03;5021279;28;20083;-57
2022/10/27 03:08:29;;;;;;;34.08;6.30;;;;;;;18.12;100.00;98777.34;5022031;28;20034;-58
2022/10/27 03:10:55;;;;;;;32.53;7.40;;;;;;;16.80;100.00;98775.09;5019641;28;20037;-60
2022/10/27 03:13:20;;;;;;;42.15;7.15;;;;;;;17.43;100.00;98778.72;5021577;28;20049;-59
2022/10/27 03:15:46;;;;;;;28.30;6.43;;;;;;;16.98;100.00;98770.63;5021111;28;20037;-60
2022/10/27 03:18:12;;;;;;;46.00;7.32;;;;;;;16.99;100.00;98769.69;5021264;28;20025;-57
2022/10/27 03:20:38;;;;;;;34.78;7.40;;;;;;;17.15;100.00;98770.56;5020610;28;20071;-58
2022/10/27 03:23:03;;;;;;;40.33;6.78;;;;;;;16.80;100.00;98774.22;5021542;28;20026;-56
2022/10/27 03:25:28;;;;;;;61.10;8.88;;;;;;;15.92;100.00;98773.56;5020911;28;20037;-56
2022/10/27 03:27:54;;;;;;;41.03;7.20;;;;;;;16.84;100.00;98776.66;5021638;28;20033;-57
2022/10/27 03:30:19;;;;;;;32.88;6.20;;;;;;;18.05;100.00;98776.88;5020684;28;20047;-55
2022/10/27 03:32:47;;;;;;;33.95;6.15;;;;;;;18.15;100.00;98776.34;5021448;28;20025;-56
2022/10/27 03:35:12;;;;;;;51.78;7.60;;;;;;;17.58;100.00;98777.81;5014604;28;20025;-58
2022/10/27 03:37:38;;;;;;;36.13;6.47;;;;;;;18.35;100.00;98789.19;5020994;28;20032;-57
2022/10/27 03:40:04;;;;;;;42.97;7.68;;;;;;;17.20;100.00;98783.47;5020461;28;20112;-57
2022/10/27 03:42:29;;;;;;;36.85;6.93;;;;;;;18.10;100.00;98790.66;5020531;28;20079;-59
2022/10/27 03:44:54;;;;;;;55.17;7.35;;;;;;;16.56;100.00;98790.44;5021406;28;20060;-57
2022/10/27 03:47:20;;;;;;;30.27;6.03;;;;;;;17.55;100.00;98783.25;5020062;28;20121;-60
2022/10/27 03:49:45;;;;;;;39.17;7.03;;;;;;;17.39;100.00;98787.72;5020254;28;20270;-60
2022/10/27 03:52:10;;;;;;;31.65;6.70;;;;;;;17.36;100.00;98783.47;5020492;28;20069;-58
2022/10/27 03:54:36;;;;;;;42.72;7.82;;;;;;;17.47;100.00;98796.06;5020823;28;20109;-59
2022/10/27 03:57:01;;;;;;;42.85;7.75;;;;;;;16.77;100.00;98791.91;5020377;28;20038;-61
2022/10/27 03:59:26;;;;;;;39.90;7.78;;;;;;;16.92;100.00;98786.78;5017982;28;20492;-59
2022/10/27 04:01:52;;;;;;;32.42;6.50;;;;;;;17.63;100.00;98802.16;5020089;28;20041;-58
2022/10/27 04:04:17;;;;;;;23.92;5.75;;;;;;;17.63;100.00;98796.03;5020679;28;20782;-60
2022/10/27 04:06:42;;;;;;;41.25;7.32;;;;;;;17.47;100.00;98796.91;5020019;28;20041;-57
2022/10/27 04:09:08;;;;;;;37.42;6.63;;;;;;;18.09;100.00;98796.03;5020655;28;20056;-58
2022/10/27 04:11:33;;;;;;;25.85;5.55;;;;;;;18.09;100.00;98798.69;5019875;28;20132;-57
2022/10/27 04:13:58;;;;;;;34.95;6.45;;;;;;;17.88;100.00;98796.34;5020325;28;20522;-59
2022/10/27 04:16:24;;;;;;;45.20;7.72;;;;;;;16.70;100.00;98795.81;5020270;28;20588;-60
2022/10/27 04:18:49;;;;;;;36.97;7.30;;;;;;;16.89;100.00;98789.56;5020634;28;20029;-57
2022/10/27 04:21:15;;;;;;;25.17;5.85;;;;;;;17.58;100.00;98792.81;5019475;28;20061;-57
2022/10/27 04:23:41;;;;;;;49.95;8.00;;;;;;;15.73;100.00;98794.63;5020217;28;20052;-60
2022/10/27 04:26:06;;;;;;;35.80;7.30;;;;;;;16.98;100.00;98798.78;5019710;28;20656;-59
2022/10/27 04:28:32;;;;;;;42.03;7.55;;;;;;;16.96;100.00;98796.22;5020434;28;20033;-57
2022/10/27 04:30:57;;;;;;;30.38;6.32;;;;;;;17.73;100.00;98797.19;5019479;28;20044;-58
2022/10/27 04:33:23;;;;;;;67.03;8.98;;;;;;;16.21;100.00;98790.50;5019761;28;20045;-60
2022/10/27 04:35:48;;;;;;;34.45;7.03;;;;;;;17.10;100.00;98798.94;5019709;28;20044;-57
2022/10/27 04:38:14;;;;;;;57.80;8.20;;;;;;;16.93;100.00;98789.34;5019610;28;20029;-57
2022/10/27 04:40:39;;;;;;;34.10;7.18;;;;;;;17.46;100.00;98789.94;5019399;28;20091;-58
2022/10/27 04:43:06;;;;;;;59.70;11.68;;;;;;;15.56;100.00;98800.72;5019303;28;20429;-58
2022/10/27 04:45:32;;;;;;;66.90;11.23;;;;;;;15.82;100.00;98801.25;5019662;28;20046;-57
2022/10/27 04:47:57;;;;;;;39.90;7.82;;;;;;;17.45;100.00;98792.66;5019861;28;20029;-59
2022/10/27 04:50:22;;;;;;;29.20;6.85;;;;;;;17.50;100.00;98798.53;5018670;28;20041;-57
2022/10/27 04:53:00;;;;;;;27.58;6.63;;;;;;;17.03;100.00;98797.59;5019404;28;20029;-59
2022/10/27 04:55:26;;;;;;;40.75;7.78;;;;;;;16.81;100.00;98802.28;5019033;28;20055;-61
2022/10/27 04:57:52;;;;;;;67.35;10.02;;;;;;;16.03;100.00;98805.44;5018943;28;20021;-58
2022/10/27 05:00:18;;;;;;;35.55;6.70;;;;;;;16.48;100.00;98806.63;5017897;28;20444;-57
2022/10/27 05:02:43;;;;;;;55.05;8.27;;;;;;;17.11;100.00;98808.56;5019148;28;20040;-57
2022/10/27 05:05:09;;;;;;;60.00;7.80;;;;;;;17.18;100.00;98810.88;5019232;28;20121;-58
2022/10/27 05:07:35;;;;;;;40.25;6.93;;;;;;;17.46;100.00;98804.88;5019182;28;20055;-58
2022/10/27 05:10:00;;;;;;;58.83;7.72;;;;;;;17.15;100.00;98810.09;5018761;28;20023;-56
2022/10/27 05:12:25;;;;;;;44.85;7.72;;;;;;;17.07;100.00;98808.81;5018597;28;20662;-58
2022/10/27 05:14:51;;;;;;;54.78;9.10;;;;;;;16.82;100.00;98802.22;5014849;28;20402;-57
2022/10/27 05:17:16;;;;;;;49.97;7.60;;;;;;;17.32;100.00;98808.31;5017101;28;20443;-58
2022/10/27 05:19:41;;;;;;;45.05;8.13;;;;;;;17.28;100.00;98814.69;5017933;28;20017;-59
2022/10/27 05:22:07;;;;;;;35.35;7.43;;;;;;;17.09;100.00;98809.56;5018485;28;20060;-59
2022/10/27 05:24:32;;;;;;;34.88;7.13;;;;;;;16.82;100.00;98804.84;5018425;28;20037;-59
2022/10/27 05:26:58;;;;;;;44.28;7.47;;;;;;;16.71;100.00;98808.06;5018190;28;20160;-61
2022/10/27 05:29:24;;;;;;;46.30;7.68;;;;;;;17.02;100.00;98809.06;5018858;28;20040;-61
2022/10/27 05:31:50;;;;;;;80.28;9.25;;;;;;;16.72;100.00;98809.75;5017968;28;20589;-59
2022/10/27 05:34:15;;;;;;;92.10;9.75;;;;;;;16.78;100.00;98803.31;5018370;28;20037;-61
2022/10/27 05:36:41;;;;;;;74.85;9.23;;;;;;;16.31;100.00;98802.25;5015700;28;20119;-59
2022/10/27 05:39:06;;;;;;;135.48;9.98;;;;;;;16.49;100.00;98810.97;5015698;28;20037;-58
2022/10/27 05:41:32;;;;;;;73.03;8.65;;;;;;;16.41;100.00;98804.38;5015691;28;20056;-58
2022/10/27 05:43:57;;;;;;;78.07;10.00;;;;;;;15.62;100.00;98816.19;5017153;28;20033;-61
2022/10/27 05:46:22;;;;;;;72.60;9.80;;;;;;;16.18;100.00;98809.91;5018399;28;20084;-60
2022/10/27 05:48:48;;;;;;;71.88;10.25;;;;;;;15.23;100.00;98804.88;5018593;28;20061;-62
2022/10/27 05:51:13;;;;;;;65.95;10.68;;;;;;;15.90;100.00;98802.56;5017172;28;20598;-60
2022/10/27 05:53:38;;;;;;;49.55;9.65;;;;;;;16.06;100.00;98802.63;5018924;28;20068;-60
2022/10/27 05:56:04;;;;;;;71.15;11.75;;;;;;;15.97;100.00;98803.97;5017802;28;20041;-59
2022/10/27 05:58:29;;;;;;;55.85;10.68;;;;;;;16.25;100.00;98807.84;5019184;28;20018;-61
2022/10/27 06:00:58;;;;;;;60.28;10.23;;;;;;;16.22;100.00;98809.75;5018032;28;20041;-59
2022/10/27 06:03:24;;;;;;;91.90;11.10;;;;;;;16.11;100.00;98807.69;5018675;28;20048;-62
2022/10/27 06:05:51;;;;;;;36.33;9.45;;;;;;;16.67;100.00;98803.00;5017627;28;20771;-60
2022/10/27 06:08:17;;;;;;;42.03;9.10;;;;;;;16.57;100.00;98806.13;5015858;28;20026;-60
2022/10/27 06:10:43;;;;;;;36.83;8.10;;;;;;;17.01;100.00;98806.53;5017689;28;20489;-60
2022/10/27 06:13:12;;;;;;;49.42;9.25;;;;;;;17.08;100.00;98816.63;5020129;28;20029;-60
2022/10/27 06:15:37;;;;;;;38.05;8.30;;;;;;;16.90;100.00;98813.22;5022050;28;20048;-59
2022/10/27 06:18:03;;;;;;;43.22;7.80;;;;;;;17.51;100.00;98819.50;5022559;28;20259;-60
2022/10/27 06:20:29;;;;;;;38.05;8.25;;;;;;;17.94;100.00;98828.59;5021386;28;20037;-61
2022/10/27 06:22:54;;;;;;;43.70;7.95;;;;;;;17.07;100.00;98830.75;5022939;28;20427;-62
2022/10/27 06:25:19;;;;;;;59.03;9.30;;;;;;;16.25;100.00;98828.88;5020912;28;20024;-59
2022/10/27 06:27:45;;;;;;;35.33;7.65;;;;;;;16.95;100.00;98831.44;5022680;28;20086;-59
2022/10/27 06:30:11;;;;;;;45.88;8.57;;;;;;;17.67;100.00;98824.78;5021770;28;20037;-60
2022/10/27 06:32:37;;;;;;;76.57;10.13;;;;;;;17.23;100.00;98827.28;5022081;28;20025;-61
2022/10/27 06:35:03;;;;;;;85.30;9.82;;;;;;;16.72;100.00;98833.44;5021414;28;20044;-59
2022/10/27 06:37:29;;;;;;;55.83;8.55;;;;;;;17.39;100.00;98832.53;5021805;28;20184;-60
2022/10/27 06:39:54;;;;;;;56.83;8.80;;;;;;;17.52;100.00;98842.34;5021979;28;20032;-61
2022/10/27 06:42:21;;;;;;;49.28;9.23;;;;;;;17.86;100.00;98839.59;5021887;28;20106;-58
2022/10/27 06:44:46;;;;;;;48.50;10.50;;;;;;;17.88;100.00;98841.22;5021875;28;20079;-62
2022/10/27 06:47:12;;;;;;;50.70;9.68;;;;;;;17.43;100.00;98847.28;5021507;28;20544;-59
2022/10/27 06:49:37;;;;;;;63.38;11.38;;;;;;;18.19;100.00;98852.63;5021143;28;20392;-60
2022/10/27 06:52:03;;;;;;;28.25;8.63;;;;;;;18.00;100.00;98852.00;5021092;28;20033;-60
2022/10/27 06:54:28;;;;;;;35.72;9.57;;;;;;;18.10;100.00;98858.44;5021713;28;20095;-59
2022/10/27 06:56:53;;;;;;;35.58;10.02;;;;;;;17.33;100.00;98862.72;5021153;28;20180;-62
2022/10/27 06:59:19;;;;;;;33.85;9.52;;;;;;;18.19;100.00;98857.91;5021609;28;20104;-58
2022/10/27 07:01:44;;;;;;;32.80;8.40;;;;;;;18.17;100.00;98865.06;5020845;28;20041;-60
2022/10/27 07:04:09;;;;;;;26.33;6.80;;;;;;;19.35;100.00;98862.34;5021600;28;20038;-62
2022/10/27 07:06:35;;;;;;;30.55;7.97;;;;;;;18.09;100.00;98860.22;5019900;28;20160;-59
2022/10/27 07:09:00;;;;;;;32.60;8.95;;;;;;;19.31;100.00;98874.06;5021269;28;20122;-62
2022/10/27 07:11:27;;;;;;;25.20;7.50;;;;;;;19.67;100.00;98874.47;5019631;28;20037;-59
2022/10/27 07:13:53;;;;;;;1945.35;95.47;;;;;;;20.79;100.00;98875.84;5021183;28;20144;-61
2022/10/27 07:16:18;;;;;;;1999.90;194.88;;;;;;;22.72;100.00;98875.19;5021122;28;20120;-58
2022/10/27 07:18:44;;;;;;;1204.25;52.22;;;;;;;23.11;100.00;98881.03;5021781;28;20041;-62
2022/10/27 07:21:09;;;;;;;524.20;25.50;;;;;;;24.16;100.00;98883.28;5019187;28;20077;-62
2022/10/27 07:23:34;;;;;;;29.20;6.57;;;;;;;24.24;100.00;98886.13;5021872;28;20029;-61
2022/10/27 07:26:00;;;;;;;22.35;5.57;;;;;;;25.82;100.00;98890.31;5021187;28;20099;-59
2022/10/27 07:28:25;;;;;;;25.05;6.07;;;;;;;26.02;100.00;98890.38;5021437;28;20026;-60
2022/10/27 07:30:53;;;;;;;23.92;5.38;;;;;;;27.40;96.92;98888.19;5020351;28;20025;-61
2022/10/27 07:33:19;;;;;;;21.63;5.60;;;;;;;27.50;88.94;98888.97;5021090;28;20052;-63
2022/10/27 07:35:48;;;;;;;17.00;4.95;;;;;;;27.80;76.75;98895.00;5020299;28;20628;-61
2022/10/27 07:38:13;;;;;;;22.23;4.82;;;;;;;29.39;73.01;98895.94;5021106;28;20025;-60
2022/10/27 07:40:39;;;;;;;12.70;4.35;;;;;;;29.84;61.77;98901.16;5019755;28;20739;-60
2022/10/27 07:43:04;;;;;;;21.17;5.15;;;;;;;30.28;56.66;98900.91;5020514;28;20224;-60
2022/10/27 07:45:30;;;;;;;21.95;5.22;;;;;;;29.23;58.12;98898.56;5019538;28;20052;-61
2022/10/27 07:47:56;;;;;;;16.95;4.63;;;;;;;26.83;66.51;98888.22;5018671;28;20037;-61
2022/10/27 07:50:27;;;;;;;20.63;4.90;;;;;;;24.47;76.07;98880.72;5018932;28;20733;-60
2022/10/27 07:52:52;;;;;;;17.00;4.72;;;;;;;24.27;84.67;98879.72;5020779;28;20022;-62
2022/10/27 07:55:21;;;;;;;21.50;5.38;;;;;;;24.16;85.37;98877.94;5019308;28;20384;-60
2022/10/27 07:58:03;;;;;;;18.15;5.28;;;;;;;23.56;100.00;98875.66;5020052;28;20021;-61
2022/10/27 08:00:29;;;;;;;24.27;5.40;;;;;;;23.26;99.67;98885.13;5018689;28;20041;-61
2022/10/27 08:02:58;;;;;;;23.20;5.22;;;;;;;23.20;100.00;98890.97;5019031;28;20033;-63
2022/10/27 08:05:23;;;;;;;24.20;6.13;;;;;;;22.66;100.00;98883.59;5018327;28;20026;-63
2022/10/27 08:07:48;;;;;;;20.50;5.63;;;;;;;22.99;100.00;98876.63;5018097;28;20029;-62
2022/10/27 08:10:14;;;;;;;20.38;5.93;;;;;;;22.90;100.00;98878.19;5020230;28;20028;-60
2022/10/27 08:12:43;;;;;;;18.73;5.30;;;;;;;23.53;100.00;98886.56;5020186;28;20025;-59
2022/10/27 08:15:10;;;;;;;21.23;5.50;;;;;;;23.02;100.00;98879.91;5019669;28;20025;-63
2022/10/27 08:17:35;;;;;;;27.80;5.95;;;;;;;22.74;100.00;98883.03;5019187;28;20094;-60
2022/10/27 08:20:00;;;;;;;26.25;6.00;;;;;;;22.72;100.00;98875.19;5018244;28;20613;-60
2022/10/27 08:22:25;;;;;;;19.60;5.10;;;;;;;22.61;100.00;98883.13;5017238;28;20233;-64
2022/10/27 08:24:51;;;;;;;28.67;5.78;;;;;;;22.80;100.00;98883.41;5017774;28;20479;-60
2022/10/27 08:27:16;;;;;;;24.50;5.43;;;;;;;23.08;100.00;98883.94;5019318;28;20052;-60
2022/10/27 08:29:42;;;;;;;29.88;5.95;;;;;;;22.57;100.00;98876.34;5019447;28;20021;-61
2022/10/27 08:32:09;;;;;;;25.10;5.63;;;;;;;23.48;100.00;98872.78;5019382;28;20510;-60
2022/10/27 08:34:34;;;;;;;22.40;5.07;;;;;;;22.08;100.00;98876.41;5020125;28;20380;-61
2022/10/27 08:37:00;;;;;;;26.95;5.10;;;;;;;22.42;100.00;98876.53;5019251;28;20037;-58
2022/10/27 08:39:25;;;;;;;22.60;5.15;;;;;;;22.65;100.00;98879.28;5018720;28;20882;-61
2022/10/27 08:42:01;;;;;;;26.35;5.05;;;;;;;23.15;100.00;98885.13;5016299;28;20871;-61
2022/10/27 08:44:36;;;;;;;21.35;4.63;;;;;;;22.70;100.00;98874.44;5018976;28;20022;-61
2022/10/27 08:47:12;;;;;;;25.85;5.25;;;;;;;22.30;100.00;98882.81;5019073;28;20051;-59
2022/10/27 08:49:40;;;;;;;27.27;5.35;;;;;;;22.86;100.00;98876.75;5018213;28;20029;-58
2022/10/27 08:52:30;;;;;;;22.17;5.10;;;;;;;22.26;100.00;98873.38;5019073;28;20095;-60
2022/10/27 08:55:14;;;;;;;27.02;5.55;;;;;;;22.32;100.00;98873.75;5019109;28;20552;-58
2022/10/27 08:57:49;;;;;;;23.52;5.28;;;;;;;23.26;100.00;98873.66;5019244;28;20053;-60
2022/10/27 09:00:14;;;;;;;24.80;5.47;;;;;;;23.22;100.00;98877.53;5018668;28;20526;-58
2022/10/27 09:03:13;;;;;;;20.08;4.80;;;;;;;22.21;100.00;98865.69;5018945;28;20039;-62
2022/10/27 09:05:53;;;;;;;18.85;4.93;;;;;;;23.75;100.00;98863.53;5018905;28;20044;-59
2022/10/27 09:08:36;;;;;;;24.88;5.30;;;;;;;23.88;100.00;98866.91;5018581;28;20026;-60
2022/10/27 09:11:20;;;;;;;21.73;4.88;;;;;;;23.82;100.00;98859.41;5016872;28;20056;-61
2022/10/27 09:14:04;;;;;;;25.00;5.03;;;;;;;23.41;100.00;98844.97;5019377;28;20060;-59
2022/10/27 09:16:37;;;;;;;20.08;4.53;;;;;;;24.70;100.00;98847.59;5018157;28;20045;-60
2022/10/27 09:19:13;;;;;;;20.88;4.80;;;;;;;25.57;100.00;98855.13;5019069;28;20525;-62
2022/10/27 09:21:42;;;;;;;19.90;4.30;;;;;;;24.81;100.00;98855.53;5018098;28;20103;-57
2022/10/27 09:24:12;;;;;;;28.92;5.20;;;;;;;24.58;100.00;98846.00;5019045;28;21077;-58
2022/10/27 09:26:40;;;;;;;22.48;4.88;;;;;;;24.84;100.00;98848.25;5018448;28;20118;-59
2022/10/27 09:29:35;;;;;;;18.98;4.35;;;;;;;25.40;100.00;98847.75;5018932;28;20060;-61
2022/10/27 09:32:26;;;;;;;22.58;5.05;;;;;;;25.94;100.00;98846.50;5017050;28;20049;-60
2022/10/27 09:35:00;;;;;;;16.63;4.47;;;;;;;25.83;100.00;98837.75;5016130;28;20065;-58
2022/10/27 09:37:27;;;;;;;20.50;5.15;;;;;;;26.81;100.00;98851.91;5018376;28;20643;-58
2022/10/27 09:39:53;;;;;;;21.70;5.25;;;;;;;25.89;100.00;98858.56;5018977;28;20041;-61
2022/10/27 09:42:19;;;;;;;19.27;4.70;;;;;;;27.57;97.33;98866.94;5018699;28;20045;-61
2022/10/27 09:44:58;;;;;;;20.80;5.13;;;;;;;28.20;90.15;98866.94;5018563;28;20040;-59
2022/10/27 09:47:27;;;;;;;21.23;4.88;;;;;;;28.52;85.49;98868.19;5018484;28;20029;-59
2022/10/27 09:49:53;;;;;;;18.75;4.70;;;;;;;28.56;87.66;98855.31;5017868;28;20064;-60
2022/10/27 09:52:32;;;;;;;18.88;4.70;;;;;;;28.95;81.96;98865.63;5018538;28;20603;-60
2022/10/27 09:54:58;;;;;;;18.23;4.53;;;;;;;29.90;74.60;98857.47;5018763;28;20021;-60
2022/10/27 09:57:31;;;;;;;19.63;4.53;;;;;;;29.73;71.59;98862.78;5018292;28;20068;-61
2022/10/27 10:00:00;;;;;;;20.90;4.78;;;;;;;29.83;71.46;98862.66;5017342;28;20025;-63
2022/10/27 10:02:30;;;;;;;18.23;4.40;;;;;;;30.28;68.45;98858.66;5017562;28;20053;-58
2022/10/27 10:04:56;;;;;;;18.15;4.90;;;;;;;31.66;63.69;98860.38;5016854;28;20076;-62
2022/10/27 10:07:31;;;;;;;17.23;4.22;;;;;;;31.05;63.53;98860.97;5017957;28;20215;-60
2022/10/27 10:10:26;;;;;;;22.80;5.20;;;;;;;29.35;68.06;98856.13;5017830;28;20029;-59
2022/10/27 10:13:13;;;;;;;22.23;4.88;;;;;;;28.47;75.14;98857.06;5017617;28;20038;-60
2022/10/27 10:15:43;;;;;;;23.65;5.22;;;;;;;28.03;81.10;98847.19;5017998;28;20056;-61
2022/10/27 10:18:24;;;;;;;25.02;5.35;;;;;;;28.00;75.34;98855.53;5018576;28;20025;-61
2022/10/27 10:21:10;;;;;;;21.55;4.43;;;;;;;29.66;71.70;98855.53;5017931;28;20518;-62
2022/10/27 10:23:45;;;;;;;24.23;4.93;;;;;;;29.76;69.19;98843.69;5018383;28;20030;-60
2022/10/27 10:26:26;;;;;;;28.20;5.30;;;;;;;30.78;63.60;98843.31;5017719;28;20119;-60
2022/10/27 10:29:05;;;;;;;23.08;4.65;;;;;;;29.99;68.01;98845.72;5011625;28;20028;-61
2022/10/27 10:31:30;;;;;;;22.17;4.88;;;;;;;29.99;66.96;98829.56;5017701;28;20034;-63
2022/10/27 10:34:05;;;;;;;23.40;4.88;;;;;;;29.95;65.03;98839.00;5018453;28;20438;-61
2022/10/27 10:36:38;;;;;;;19.40;4.22;;;;;;;30.46;67.12;98831.63;5018304;28;20071;-63
2022/10/27 10:39:34;;;;;;;18.90;4.35;;;;;;;30.18;67.54;98837.31;5018137;28;20589;-62
2022/10/27 10:42:08;;;;;;;21.33;4.40;;;;;;;29.64;69.46;98841.44;5017824;28;20069;-59
2022/10/27 10:44:34;;;;;;;26.38;5.45;;;;;;;29.43;69.95;98840.03;5018201;28;20036;-60
2022/10/27 10:47:00;;;;;;;24.40;5.15;;;;;;;29.33;70.94;98839.31;5017829;28;20038;-60
2022/10/27 10:49:40;;;;;;;30.05;5.90;;;;;;;29.28;70.85;98836.28;5017307;28;20751;-61
2022/10/27 10:52:17;;;;;;;27.20;5.35;;;;;;;30.11;67.80;98828.25;5017610;28;20076;-59
2022/10/27 10:54:45;;;;;;;25.25;5.35;;;;;;;28.69;70.89;98833.44;5017536;28;20022;-62
2022/10/27 10:57:25;;;;;;;24.33;4.88;;;;;;;29.81;67.98;98834.25;5021205;28;20038;-60
2022/10/27 10:59:53;;;;;;;26.05;5.28;;;;;;;30.16;68.83;98827.72;5021538;28;20025;-61
2022/10/27 11:02:24;;;;;;;25.45;5.57;;;;;;;30.68;65.08;98835.44;5021526;28;20072;-63
2022/10/27 11:04:50;;;;;;;24.50;4.43;;;;;;;29.65;68.44;98826.97;5022549;28;20067;-59
2022/10/27 11:07:18;;;;;;;23.23;4.68;;;;;;;28.84;68.66;98819.28;5035921;28;20061;-64
2022/10/27 11:10:13;;;;;;;32.08;6.00;;;;;;;29.54;69.31;98825.47;5020995;28;20570;-59
2022/10/27 11:12:43;;;;;;;22.98;5.15;;;;;;;28.62;73.11;98825.19;5021575;28;20103;-60
2022/10/27 11:15:19;;;;;;;24.48;5.22;;;;;;;28.63;73.01;98819.63;5021068;28;20029;-58
2022/10/27 11:17:48;;;;;;;31.70;6.05;;;;;;;28.48;73.51;98823.88;5021162;28;20033;-60
2022/10/27 11:20:23;;;;;;;21.98;4.85;;;;;;;29.48;69.68;98826.09;5020566;28;20163;-59
2022/10/27 11:22:51;;;;;;;24.08;4.82;;;;;;;28.86;72.04;98821.81;5020870;28;20029;-63
2022/10/27 11:25:21;;;;;;;22.17;5.00;;;;;;;28.33;76.14;98820.94;5021310;28;20029;-63
2022/10/27 11:28:10;;;;;;;25.75;5.35;;;;;;;27.75;77.11;98830.28;5021473;28;20064;-61
2022/10/27 11:30:42;;;;;;;22.83;4.82;;;;;;;28.64;76.60;98829.38;5020472;28;20453;-62
2022/10/27 11:33:16;;;;;;;22.23;4.88;;;;;;;27.39;80.53;98829.41;5021003;28;20076;-61
2022/10/27 11:36:16;;;;;;;18.73;4.40;;;;;;;28.04;78.85;98831.94;5020411;28;20803;-59
2022/10/27 11:38:47;;;;;;;26.45;4.90;;;;;;;27.74;81.87;98827.78;5020883;28;20030;-64
2022/10/27 11:41:21;;;;;;;20.80;4.93;;;;;;;27.57;82.05;98824.06;5020239;28;20037;-60
2022/10/27 11:44:01;;;;;;;24.50;4.70;;;;;;;27.98;81.93;98817.31;5021186;28;20265;-59
2022/10/27 11:47:16;;;;;;;21.40;4.45;;;;;;;27.70;81.87;98819.19;5020753;28;20033;-60
2022/10/27 11:49:58;;;;;;;29.27;5.35;;;;;;;27.38;85.29;98820.50;5006071;28;20056;-60
2022/10/27 11:52:34;;;;;;;24.63;5.20;;;;;;;27.50;83.87;98819.31;5020562;28;20623;-59
2022/10/27 11:55:01;;;;;;;25.30;4.90;;;;;;;28.42;80.69;98821.84;5035650;28;20032;-59
2022/10/27 11:57:40;;;;;;;27.35;5.40;;;;;;;27.53;81.87;98822.69;5020140;28;20049;-60
2022/10/27 12:00:20;;;;;;;31.52;5.13;;;;;;;27.62;84.86;98819.09;5019658;28;20033;-61
2022/10/27 12:03:03;;;;;;;21.52;5.20;;;;;;;27.06;85.26;98811.06;5020539;28;20416;-59
2022/10/27 12:05:38;;;;;;;27.52;5.07;;;;;;;26.06;88.27;98801.72;5020085;28;20462;-61
2022/10/27 12:08:14;;;;;;;29.40;5.50;;;;;;;27.69;83.35;98804.09;5020413;28;20152;-59
2022/10/27 12:10:48;;;;;;;27.90;5.25;;;;;;;27.20;85.83;98806.22;5019814;28;20041;-60
2022/10/27 12:13:24;;;;;;;30.38;5.30;;;;;;;27.12;86.26;98798.94;5020128;28;20032;-60
2022/10/27 12:15:56;;;;;;;18.35;4.45;;;;;;;28.41;79.60;98798.69;5019903;28;20041;-59
2022/10/27 12:18:37;;;;;;;25.90;4.95;;;;;;;28.23;82.30;98788.84;5019623;28;20041;-59
2022/10/27 12:21:17;;;;;;;28.77;6.40;;;;;;;27.45;83.98;98794.81;5019700;28;20116;-59
2022/10/27 12:23:55;;;;;;;27.45;5.05;;;;;;;26.81;84.42;98798.38;5020883;28;20029;-59